sensor_id;sensor_type;location;lat;lon;timestamp;temperature;humidity
2611;DHT22;5612;51.134;17.058;2024-03-06T00:01:22;6.90;99.90
2611;DHT22;5612;51.134;17.058;2024-03-06T00:03:51;6.90;1.00
2611;DHT22;5612;51.134;17.058;2024-03-06T00:06:19;6.80;99.90
2611;DHT22;5612;51.134;17.058;2024-03-06T00:08:50;6.80;1.00
2611;DHT22;5612;51.134;17.058;2024-03-06T00:11:19;6.80;1.00
2611;DHT22;5612;51.134;17.058;2024-03-06T00:13:48;6.90;1.00
2611;DHT22;5612;51.134;17.058;2024-03-06T00:16:16;6.90;1.00
2611;DHT22;5612;51.134;17.058;2024-03-06T00:18:46;6.90;99.90
2611;DHT22;5612;51.134;17.058;2024-03-06T00:21:15;7.00;1.00
2611;DHT22;5612;51.134;17.058;2024-03-06T00:23:45;7.10;99.90
2611;DHT22;5612;51.134;17.058;2024-03-06T00:26:16;7.10;99.90
2611;DHT22;5612;51.134;17.058;2024-03-06T00:28:45;7.10;99.90
2611;DHT22;5612;51.134;17.058;2024-03-06T00:31:13;6.90;99.90
2611;DHT22;5612;51.134;17.058;2024-03-06T00:33:42;7.00;1.00
2611;DHT22;5612;51.134;17.058;2024-03-06T00:36:11;6.90;1.00
2611;DHT22;5612;51.134;17.058;2024-03-06T00:38:40;7.00;99.90
2611;DHT22;5612;51.134;17.058;2024-03-06T00:41:09;7.00;99.90
2611;DHT22;5612;51.134;17.058;2024-03-06T00:43:39;6.90;1.00
2611;DHT22;5612;51.134;17.058;2024-03-06T00:46:08;6.80;1.00
2611;DHT22;5612;51.134;17.058;2024-03-06T00:48:38;6.90;1.00
2611;DHT22;5612;51.134;17.058;2024-03-06T00:51:08;6.90;1.00
2611;DHT22;5612;51.134;17.058;2024-03-06T00:53:37;6.90;1.00
2611;DHT22;5612;51.134;17.058;2024-03-06T00:56:06;6.90;1.00
2611;DHT22;5612;51.134;17.058;2024-03-06T00:58:35;7.00;1.00
2611;DHT22;5612;51.134;17.058;2024-03-06T01:01:06;7.00;1.00
2611;DHT22;5612;51.134;17.058;2024-03-06T01:03:35;7.00;1.00
2611;DHT22;5612;51.134;17.058;2024-03-06T01:06:06;7.00;1.00
2611;DHT22;5612;51.134;17.058;2024-03-06T01:08:35;6.90;1.00
2611;DHT22;5612;51.134;17.058;2024-03-06T01:11:04;6.90;1.00
2611;DHT22;5612;51.134;17.058;2024-03-06T01:13:34;6.90;1.00
2611;DHT22;5612;51.134;17.058;2024-03-06T01:16:06;6.90;1.00
2611;DHT22;5612;51.134;17.058;2024-03-06T01:18:36;6.80;1.00
2611;DHT22;5612;51.134;17.058;2024-03-06T01:21:05;6.60;1.00
2611;DHT22;5612;51.134;17.058;2024-03-06T01:23:35;6.60;1.00
2611;DHT22;5612;51.134;17.058;2024-03-06T01:26:04;6.60;1.00
2611;DHT22;5612;51.134;17.058;2024-03-06T01:28:33;6.60;1.00
2611;DHT22;5612;51.134;17.058;2024-03-06T01:31:04;6.70;1.00
2611;DHT22;5612;51.134;17.058;2024-03-06T01:33:36;6.70;1.00
2611;DHT22;5612;51.134;17.058;2024-03-06T01:36:05;6.80;1.00
2611;DHT22;5612;51.134;17.058;2024-03-06T01:38:34;6.70;1.00
2611;DHT22;5612;51.134;17.058;2024-03-06T01:41:03;6.60;1.00
2611;DHT22;5612;51.134;17.058;2024-03-06T01:43:37;6.70;1.00
2611;DHT22;5612;51.134;17.058;2024-03-06T01:46:08;6.50;1.00
2611;DHT22;5612;51.134;17.058;2024-03-06T01:48:38;6.40;1.00
2611;DHT22;5612;51.134;17.058;2024-03-06T01:51:08;6.50;1.00
2611;DHT22;5612;51.134;17.058;2024-03-06T01:53:37;6.50;1.00
2611;DHT22;5612;51.134;17.058;2024-03-06T01:56:07;6.60;1.00
2611;DHT22;5612;51.134;17.058;2024-03-06T01:58:40;6.60;1.00
2611;DHT22;5612;51.134;17.058;2024-03-06T02:01:10;6.60;1.00
2611;DHT22;5612;51.134;17.058;2024-03-06T02:03:40;6.60;1.00
2611;DHT22;5612;51.134;17.058;2024-03-06T02:06:10;6.50;1.00
2611;DHT22;5612;51.134;17.058;2024-03-06T02:08:41;6.50;1.00
2611;DHT22;5612;51.134;17.058;2024-03-06T02:11:10;6.50;1.00
2611;DHT22;5612;51.134;17.058;2024-03-06T02:13:39;6.50;1.00
2611;DHT22;5612;51.134;17.058;2024-03-06T02:16:10;6.30;1.00
2611;DHT22;5612;51.134;17.058;2024-03-06T02:18:51;6.40;1.00
2611;DHT22;5612;51.134;17.058;2024-03-06T02:21:22;6.30;1.00
2611;DHT22;5612;51.134;17.058;2024-03-06T02:23:52;6.20;1.00
2611;DHT22;5612;51.134;17.058;2024-03-06T02:26:22;6.10;1.00
2611;DHT22;5612;51.134;17.058;2024-03-06T02:28:53;6.00;1.00
2611;DHT22;5612;51.134;17.058;2024-03-06T02:31:22;5.90;1.00
2611;DHT22;5612;51.134;17.058;2024-03-06T02:33:51;5.70;1.00
2611;DHT22;5612;51.134;17.058;2024-03-06T02:36:21;5.60;99.90
2611;DHT22;5612;51.134;17.058;2024-03-06T02:38:50;5.50;99.90
2611;DHT22;5612;51.134;17.058;2024-03-06T02:41:19;5.40;99.90
2611;DHT22;5612;51.134;17.058;2024-03-06T02:43:48;5.20;1.00
2611;DHT22;5612;51.134;17.058;2024-03-06T02:46:17;5.20;1.00
2611;DHT22;5612;51.134;17.058;2024-03-06T02:48:46;5.20;1.00
2611;DHT22;5612;51.134;17.058;2024-03-06T02:51:18;5.10;1.00
2611;DHT22;5612;51.134;17.058;2024-03-06T02:53:49;5.10;1.00
2611;DHT22;5612;51.134;17.058;2024-03-06T02:56:20;4.90;1.00
2611;DHT22;5612;51.134;17.058;2024-03-06T02:58:49;4.90;1.00
2611;DHT22;5612;51.134;17.058;2024-03-06T03:01:18;4.80;7.10
2611;DHT22;5612;51.134;17.058;2024-03-06T03:03:47;4.80;1.00
2611;DHT22;5612;51.134;17.058;2024-03-06T03:06:16;4.60;99.90
2611;DHT22;5612;51.134;17.058;2024-03-06T03:08:45;4.50;1.00
2611;DHT22;5612;51.134;17.058;2024-03-06T03:11:16;4.40;1.00
2611;DHT22;5612;51.134;17.058;2024-03-06T03:13:46;4.30;1.00
2611;DHT22;5612;51.134;17.058;2024-03-06T03:16:18;4.20;99.90
2611;DHT22;5612;51.134;17.058;2024-03-06T03:18:48;4.10;1.00
2611;DHT22;5612;51.134;17.058;2024-03-06T03:21:17;4.10;1.00
2611;DHT22;5612;51.134;17.058;2024-03-06T03:23:46;4.00;1.00
2611;DHT22;5612;51.134;17.058;2024-03-06T03:26:17;3.90;1.00
2611;DHT22;5612;51.134;17.058;2024-03-06T03:28:46;3.90;1.00
2611;DHT22;5612;51.134;17.058;2024-03-06T03:31:15;3.90;1.00
2611;DHT22;5612;51.134;17.058;2024-03-06T03:33:44;3.90;1.00
2611;DHT22;5612;51.134;17.058;2024-03-06T03:36:13;3.90;99.90
2611;DHT22;5612;51.134;17.058;2024-03-06T03:38:41;3.90;99.90
2611;DHT22;5612;51.134;17.058;2024-03-06T03:41:11;3.80;99.90
2611;DHT22;5612;51.134;17.058;2024-03-06T03:43:42;3.80;99.90
2611;DHT22;5612;51.134;17.058;2024-03-06T03:46:11;3.70;1.00
2611;DHT22;5612;51.134;17.058;2024-03-06T03:48:41;3.70;1.00
2611;DHT22;5612;51.134;17.058;2024-03-06T03:51:10;3.70;1.00
2611;DHT22;5612;51.134;17.058;2024-03-06T03:53:39;3.70;1.00
2611;DHT22;5612;51.134;17.058;2024-03-06T03:56:08;3.70;1.00
2611;DHT22;5612;51.134;17.058;2024-03-06T03:58:38;3.70;99.90
2611;DHT22;5612;51.134;17.058;2024-03-06T04:01:10;3.60;99.90
2611;DHT22;5612;51.134;17.058;2024-03-06T04:03:39;3.60;99.90
2611;DHT22;5612;51.134;17.058;2024-03-06T04:06:10;3.60;25.30
2611;DHT22;5612;51.134;17.058;2024-03-06T04:08:39;3.50;1.00
2611;DHT22;5612;51.134;17.058;2024-03-06T04:11:08;3.50;1.00
2611;DHT22;5612;51.134;17.058;2024-03-06T04:13:38;3.50;1.00
2611;DHT22;5612;51.134;17.058;2024-03-06T04:16:08;3.40;1.00
2611;DHT22;5612;51.134;17.058;2024-03-06T04:18:37;3.40;99.90
2611;DHT22;5612;51.134;17.058;2024-03-06T04:21:06;3.30;99.90
2611;DHT22;5612;51.134;17.058;2024-03-06T04:23:37;3.20;1.00
2611;DHT22;5612;51.134;17.058;2024-03-06T04:26:06;3.20;1.00
2611;DHT22;5612;51.134;17.058;2024-03-06T04:28:35;3.20;1.00
2611;DHT22;5612;51.134;17.058;2024-03-06T04:31:05;3.10;99.90
2611;DHT22;5612;51.134;17.058;2024-03-06T04:33:37;3.10;99.90
2611;DHT22;5612;51.134;17.058;2024-03-06T04:36:06;2.90;1.00
2611;DHT22;5612;51.134;17.058;2024-03-06T04:38:35;3.00;1.00
2611;DHT22;5612;51.134;17.058;2024-03-06T04:41:05;3.00;99.90
2611;DHT22;5612;51.134;17.058;2024-03-06T04:43:34;2.90;1.00
2611;DHT22;5612;51.134;17.058;2024-03-06T04:46:04;2.90;1.00
2611;DHT22;5612;51.134;17.058;2024-03-06T04:48:33;2.90;1.00
2611;DHT22;5612;51.134;17.058;2024-03-06T04:51:03;2.80;99.90
2611;DHT22;5612;51.134;17.058;2024-03-06T04:53:32;2.80;1.00
2611;DHT22;5612;51.134;17.058;2024-03-06T04:56:01;2.80;99.90
2611;DHT22;5612;51.134;17.058;2024-03-06T04:58:30;2.70;99.90
2611;DHT22;5612;51.134;17.058;2024-03-06T05:00:59;2.60;1.00
2611;DHT22;5612;51.134;17.058;2024-03-06T05:03:28;2.60;1.00
2611;DHT22;5612;51.134;17.058;2024-03-06T05:06:15;2.60;1.00
2611;DHT22;5612;51.134;17.058;2024-03-06T05:09:02;2.50;1.00
2611;DHT22;5612;51.134;17.058;2024-03-06T05:11:48;2.50;1.00
2611;DHT22;5612;51.134;17.058;2024-03-06T05:14:36;2.50;1.00
2611;DHT22;5612;51.134;17.058;2024-03-06T05:17:22;2.50;1.00
2611;DHT22;5612;51.134;17.058;2024-03-06T05:20:10;2.40;1.00
2611;DHT22;5612;51.134;17.058;2024-03-06T05:22:57;2.40;1.00
2611;DHT22;5612;51.134;17.058;2024-03-06T05:25:43;2.40;99.90
2611;DHT22;5612;51.134;17.058;2024-03-06T05:28:29;2.30;99.90
2611;DHT22;5612;51.134;17.058;2024-03-06T05:31:19;2.30;99.90
2611;DHT22;5612;51.134;17.058;2024-03-06T05:34:06;2.30;99.90
2611;DHT22;5612;51.134;17.058;2024-03-06T05:36:52;2.30;99.90
2611;DHT22;5612;51.134;17.058;2024-03-06T05:39:40;2.30;99.90
2611;DHT22;5612;51.134;17.058;2024-03-06T05:42:26;2.30;1.00
2611;DHT22;5612;51.134;17.058;2024-03-06T05:45:12;2.40;1.00
2611;DHT22;5612;51.134;17.058;2024-03-06T05:47:58;2.40;1.00
2611;DHT22;5612;51.134;17.058;2024-03-06T05:50:44;2.40;1.00
2611;DHT22;5612;51.134;17.058;2024-03-06T05:53:30;2.40;1.00
2611;DHT22;5612;51.134;17.058;2024-03-06T05:56:19;2.50;53.40
2611;DHT22;5612;51.134;17.058;2024-03-06T05:59:05;2.50;99.90
2611;DHT22;5612;51.134;17.058;2024-03-06T06:01:35;2.60;99.90
2611;DHT22;5612;51.134;17.058;2024-03-06T06:04:04;2.60;99.90
2611;DHT22;5612;51.134;17.058;2024-03-06T06:06:34;2.60;99.90
2611;DHT22;5612;51.134;17.058;2024-03-06T06:09:03;2.70;99.90
2611;DHT22;5612;51.134;17.058;2024-03-06T06:11:34;2.80;99.90
2611;DHT22;5612;51.134;17.058;2024-03-06T06:14:03;2.90;99.90
2611;DHT22;5612;51.134;17.058;2024-03-06T06:16:37;2.90;99.90
2611;DHT22;5612;51.134;17.058;2024-03-06T06:19:06;3.00;99.90
2611;DHT22;5612;51.134;17.058;2024-03-06T06:21:35;3.10;99.90
2611;DHT22;5612;51.134;17.058;2024-03-06T06:24:05;3.20;99.90
2611;DHT22;5612;51.134;17.058;2024-03-06T06:26:35;3.30;99.90
2611;DHT22;5612;51.134;17.058;2024-03-06T06:29:04;3.30;99.90
2611;DHT22;5612;51.134;17.058;2024-03-06T06:31:34;3.40;99.90
2611;DHT22;5612;51.134;17.058;2024-03-06T06:34:03;3.50;99.90
2611;DHT22;5612;51.134;17.058;2024-03-06T06:36:32;3.60;99.90
2611;DHT22;5612;51.134;17.058;2024-03-06T06:39:01;3.70;99.90
2611;DHT22;5612;51.134;17.058;2024-03-06T06:41:35;3.80;99.90
2611;DHT22;5612;51.134;17.058;2024-03-06T06:44:04;3.90;99.90
2611;DHT22;5612;51.134;17.058;2024-03-06T06:46:33;4.00;84.60
2611;DHT22;5612;51.134;17.058;2024-03-06T06:49:02;4.10;48.80
2611;DHT22;5612;51.134;17.058;2024-03-06T06:51:31;4.10;1.00
2611;DHT22;5612;51.134;17.058;2024-03-06T06:54:00;4.10;99.90
2611;DHT22;5612;51.134;17.058;2024-03-06T06:56:30;4.10;99.90
2611;DHT22;5612;51.134;17.058;2024-03-06T06:59:01;4.20;1.00
2611;DHT22;5612;51.134;17.058;2024-03-06T07:01:30;4.30;1.00
2611;DHT22;5612;51.134;17.058;2024-03-06T07:04:00;4.60;1.00
2611;DHT22;5612;51.134;17.058;2024-03-06T07:06:30;4.70;86.10
2611;DHT22;5612;51.134;17.058;2024-03-06T07:09:03;5.00;1.00
2611;DHT22;5612;51.134;17.058;2024-03-06T07:11:33;5.30;99.90
2611;DHT22;5612;51.134;17.058;2024-03-06T07:14:03;5.50;99.90
2611;DHT22;5612;51.134;17.058;2024-03-06T07:16:32;5.50;1.00
2611;DHT22;5612;51.134;17.058;2024-03-06T07:19:01;5.80;1.00
2611;DHT22;5612;51.134;17.058;2024-03-06T07:21:30;5.90;1.00
2611;DHT22;5612;51.134;17.058;2024-03-06T07:23:58;6.00;99.90
2611;DHT22;5612;51.134;17.058;2024-03-06T07:26:29;6.10;99.90
2611;DHT22;5612;51.134;17.058;2024-03-06T07:28:58;6.50;99.90
2611;DHT22;5612;51.134;17.058;2024-03-06T07:31:29;7.00;99.90
2611;DHT22;5612;51.134;17.058;2024-03-06T07:33:59;7.40;99.90
2611;DHT22;5612;51.134;17.058;2024-03-06T07:36:28;7.80;99.90
2611;DHT22;5612;51.134;17.058;2024-03-06T07:38:59;8.20;99.40
2611;DHT22;5612;51.134;17.058;2024-03-06T07:41:27;8.70;68.10
2611;DHT22;5612;51.134;17.058;2024-03-06T07:43:56;9.30;8.00
2611;DHT22;5612;51.134;17.058;2024-03-06T07:46:25;9.80;1.00
2611;DHT22;5612;51.134;17.058;2024-03-06T07:48:56;10.60;1.00
2611;DHT22;5612;51.134;17.058;2024-03-06T07:51:25;11.70;1.00
2611;DHT22;5612;51.134;17.058;2024-03-06T07:53:54;12.40;1.00
2611;DHT22;5612;51.134;17.058;2024-03-06T07:56:23;13.30;1.00
2611;DHT22;5612;51.134;17.058;2024-03-06T07:58:52;13.90;1.00
2611;DHT22;5612;51.134;17.058;2024-03-06T08:01:23;14.90;1.00
2611;DHT22;5612;51.134;17.058;2024-03-06T08:03:53;15.50;1.00
2611;DHT22;5612;51.134;17.058;2024-03-06T08:06:24;15.50;1.00
2611;DHT22;5612;51.134;17.058;2024-03-06T08:08:54;16.40;1.00
2611;DHT22;5612;51.134;17.058;2024-03-06T08:11:26;17.40;1.00
2611;DHT22;5612;51.134;17.058;2024-03-06T08:13:57;17.70;1.00
2611;DHT22;5612;51.134;17.058;2024-03-06T08:16:26;17.60;1.00
2611;DHT22;5612;51.134;17.058;2024-03-06T08:18:55;17.90;1.00
2611;DHT22;5612;51.134;17.058;2024-03-06T08:21:28;18.90;1.00
2611;DHT22;5612;51.134;17.058;2024-03-06T08:23:57;19.10;1.00
2611;DHT22;5612;51.134;17.058;2024-03-06T08:26:26;18.60;1.00
2611;DHT22;5612;51.134;17.058;2024-03-06T08:28:56;18.40;1.00
2611;DHT22;5612;51.134;17.058;2024-03-06T08:31:26;19.10;1.00
2611;DHT22;5612;51.134;17.058;2024-03-06T08:33:56;19.50;1.00
2611;DHT22;5612;51.134;17.058;2024-03-06T08:36:28;20.40;1.00
2611;DHT22;5612;51.134;17.058;2024-03-06T08:38:58;20.80;1.00
2611;DHT22;5612;51.134;17.058;2024-03-06T08:41:28;21.30;1.00
2611;DHT22;5612;51.134;17.058;2024-03-06T08:43:57;21.10;1.00
2611;DHT22;5612;51.134;17.058;2024-03-06T08:46:27;21.00;1.00
2611;DHT22;5612;51.134;17.058;2024-03-06T08:48:56;20.80;1.00
2611;DHT22;5612;51.134;17.058;2024-03-06T08:51:31;21.20;1.00
2611;DHT22;5612;51.134;17.058;2024-03-06T08:54:01;21.20;1.00
2611;DHT22;5612;51.134;17.058;2024-03-06T08:56:39;21.70;1.00
2611;DHT22;5612;51.134;17.058;2024-03-06T08:59:10;22.10;1.00
2611;DHT22;5612;51.134;17.058;2024-03-06T09:01:41;23.10;1.00
2611;DHT22;5612;51.134;17.058;2024-03-06T09:04:10;23.70;1.00
2611;DHT22;5612;51.134;17.058;2024-03-06T09:06:40;23.60;1.00
2611;DHT22;5612;51.134;17.058;2024-03-06T09:09:09;21.60;1.00
2611;DHT22;5612;51.134;17.058;2024-03-06T09:11:42;21.30;1.00
2611;DHT22;5612;51.134;17.058;2024-03-06T09:14:11;21.20;1.00
2611;DHT22;5612;51.134;17.058;2024-03-06T09:16:40;21.90;1.00
2611;DHT22;5612;51.134;17.058;2024-03-06T09:19:12;22.70;1.00
2611;DHT22;5612;51.134;17.058;2024-03-06T09:21:48;23.70;1.00
2611;DHT22;5612;51.134;17.058;2024-03-06T09:24:21;23.60;1.00
2611;DHT22;5612;51.134;17.058;2024-03-06T09:26:52;20.80;1.00
2611;DHT22;5612;51.134;17.058;2024-03-06T09:29:22;20.00;1.00
2611;DHT22;5612;51.134;17.058;2024-03-06T09:31:54;19.30;1.00
2611;DHT22;5612;51.134;17.058;2024-03-06T09:34:26;18.10;1.00
2611;DHT22;5612;51.134;17.058;2024-03-06T09:37:04;17.20;1.00
2611;DHT22;5612;51.134;17.058;2024-03-06T09:39:36;17.80;1.00
2611;DHT22;5612;51.134;17.058;2024-03-06T09:42:08;19.10;1.00
2611;DHT22;5612;51.134;17.058;2024-03-06T09:44:41;19.50;1.00
2611;DHT22;5612;51.134;17.058;2024-03-06T09:47:19;18.70;1.00
2611;DHT22;5612;51.134;17.058;2024-03-06T09:49:54;18.40;1.00
2611;DHT22;5612;51.134;17.058;2024-03-06T09:52:33;18.00;1.00
2611;DHT22;5612;51.134;17.058;2024-03-06T09:55:06;17.80;1.00
2611;DHT22;5612;51.134;17.058;2024-03-06T09:57:39;18.20;1.00
2611;DHT22;5612;51.134;17.058;2024-03-06T10:00:11;19.40;1.00
2611;DHT22;5612;51.134;17.058;2024-03-06T10:02:59;20.40;1.00
2611;DHT22;5612;51.134;17.058;2024-03-06T10:05:29;21.70;1.00
2611;DHT22;5612;51.134;17.058;2024-03-06T10:08:05;22.50;1.00
2611;DHT22;5612;51.134;17.058;2024-03-06T10:10:36;22.60;1.00
2611;DHT22;5612;51.134;17.058;2024-03-06T10:13:06;23.00;1.00
2611;DHT22;5612;51.134;17.058;2024-03-06T10:15:36;23.10;1.00
2611;DHT22;5612;51.134;17.058;2024-03-06T10:18:14;21.70;1.00
2611;DHT22;5612;51.134;17.058;2024-03-06T10:20:50;21.70;1.00
2611;DHT22;5612;51.134;17.058;2024-03-06T10:23:25;20.70;1.00
2611;DHT22;5612;51.134;17.058;2024-03-06T10:26:00;19.70;1.00
2611;DHT22;5612;51.134;17.058;2024-03-06T10:28:34;19.10;1.00
2611;DHT22;5612;51.134;17.058;2024-03-06T10:31:09;18.00;1.00
2611;DHT22;5612;51.134;17.058;2024-03-06T10:33:44;18.20;1.00
2611;DHT22;5612;51.134;17.058;2024-03-06T10:36:19;17.00;1.00
2611;DHT22;5612;51.134;17.058;2024-03-06T10:38:54;16.50;1.00
2611;DHT22;5612;51.134;17.058;2024-03-06T10:41:26;15.90;1.00
2611;DHT22;5612;51.134;17.058;2024-03-06T10:44:03;15.70;1.00
2611;DHT22;5612;51.134;17.058;2024-03-06T10:46:36;15.90;1.00
2611;DHT22;5612;51.134;17.058;2024-03-06T10:49:06;14.80;1.00
2611;DHT22;5612;51.134;17.058;2024-03-06T10:51:39;14.10;1.00
2611;DHT22;5612;51.134;17.058;2024-03-06T10:54:16;13.60;1.00
2611;DHT22;5612;51.134;17.058;2024-03-06T10:56:54;12.70;1.00
2611;DHT22;5612;51.134;17.058;2024-03-06T10:59:26;11.80;1.00
2611;DHT22;5612;51.134;17.058;2024-03-06T11:01:58;11.30;1.00
2611;DHT22;5612;51.134;17.058;2024-03-06T11:04:30;10.90;1.00
2611;DHT22;5612;51.134;17.058;2024-03-06T11:07:03;11.00;1.00
2611;DHT22;5612;51.134;17.058;2024-03-06T11:09:43;11.30;1.00
2611;DHT22;5612;51.134;17.058;2024-03-06T11:12:33;11.20;1.00
2611;DHT22;5612;51.134;17.058;2024-03-06T11:15:10;11.50;1.00
2611;DHT22;5612;51.134;17.058;2024-03-06T11:17:44;11.50;1.00
2611;DHT22;5612;51.134;17.058;2024-03-06T11:20:18;11.50;1.00
2611;DHT22;5612;51.134;17.058;2024-03-06T11:23:04;11.60;1.00
2611;DHT22;5612;51.134;17.058;2024-03-06T11:26:03;11.50;1.00
2611;DHT22;5612;51.134;17.058;2024-03-06T11:28:37;11.60;1.00
2611;DHT22;5612;51.134;17.058;2024-03-06T11:31:11;11.70;1.00
2611;DHT22;5612;51.134;17.058;2024-03-06T11:33:44;11.90;1.00
2611;DHT22;5612;51.134;17.058;2024-03-06T11:36:19;11.90;1.00
2611;DHT22;5612;51.134;17.058;2024-03-06T11:38:52;11.90;1.00
2611;DHT22;5612;51.134;17.058;2024-03-06T11:41:26;11.70;1.00
2611;DHT22;5612;51.134;17.058;2024-03-06T11:43:59;11.80;1.00
2611;DHT22;5612;51.134;17.058;2024-03-06T11:46:42;12.10;1.00
2611;DHT22;5612;51.134;17.058;2024-03-06T11:49:18;12.50;1.00
2611;DHT22;5612;51.134;17.058;2024-03-06T11:51:49;12.70;1.00
2611;DHT22;5612;51.134;17.058;2024-03-06T11:54:20;13.50;1.00
2611;DHT22;5612;51.134;17.058;2024-03-06T11:56:53;14.50;1.00
2611;DHT22;5612;51.134;17.058;2024-03-06T11:59:23;15.10;1.00
2611;DHT22;5612;51.134;17.058;2024-03-06T12:01:52;15.60;1.00
2611;DHT22;5612;51.134;17.058;2024-03-06T12:04:23;16.20;1.00
2611;DHT22;5612;51.134;17.058;2024-03-06T12:06:56;16.30;1.00
2611;DHT22;5612;51.134;17.058;2024-03-06T12:09:26;16.50;1.00
2611;DHT22;5612;51.134;17.058;2024-03-06T12:11:57;17.10;1.00
2611;DHT22;5612;51.134;17.058;2024-03-06T12:14:26;17.40;1.00
2611;DHT22;5612;51.134;17.058;2024-03-06T12:16:55;16.90;1.00
2611;DHT22;5612;51.134;17.058;2024-03-06T12:19:26;16.70;1.00
2611;DHT22;5612;51.134;17.058;2024-03-06T12:22:00;16.40;1.00
2611;DHT22;5612;51.134;17.058;2024-03-06T12:24:31;16.00;1.00
2611;DHT22;5612;51.134;17.058;2024-03-06T12:27:03;15.30;1.00
2611;DHT22;5612;51.134;17.058;2024-03-06T12:29:34;14.50;1.00
2611;DHT22;5612;51.134;17.058;2024-03-06T12:32:16;14.20;1.00
2611;DHT22;5612;51.134;17.058;2024-03-06T12:34:57;14.20;1.00
2611;DHT22;5612;51.134;17.058;2024-03-06T12:37:32;13.80;1.00
2611;DHT22;5612;51.134;17.058;2024-03-06T12:40:03;13.30;1.00
2611;DHT22;5612;51.134;17.058;2024-03-06T12:42:34;12.80;1.00
2611;DHT22;5612;51.134;17.058;2024-03-06T12:45:04;12.00;1.00
2611;DHT22;5612;51.134;17.058;2024-03-06T12:47:35;11.70;1.00
2611;DHT22;5612;51.134;17.058;2024-03-06T12:50:06;11.70;1.00
2611;DHT22;5612;51.134;17.058;2024-03-06T12:52:35;12.10;1.00
2611;DHT22;5612;51.134;17.058;2024-03-06T12:55:05;11.70;1.00
2611;DHT22;5612;51.134;17.058;2024-03-06T12:57:35;11.60;1.00
2611;DHT22;5612;51.134;17.058;2024-03-06T13:00:05;11.70;1.00
2611;DHT22;5612;51.134;17.058;2024-03-06T13:02:39;11.60;1.00
2611;DHT22;5612;51.134;17.058;2024-03-06T13:05:08;11.10;1.00
2611;DHT22;5612;51.134;17.058;2024-03-06T13:07:37;10.70;1.00
2611;DHT22;5612;51.134;17.058;2024-03-06T13:10:07;10.70;1.00
2611;DHT22;5612;51.134;17.058;2024-03-06T13:12:39;11.10;1.00
2611;DHT22;5612;51.134;17.058;2024-03-06T13:15:09;11.10;1.00
2611;DHT22;5612;51.134;17.058;2024-03-06T13:17:38;11.10;1.00
2611;DHT22;5612;51.134;17.058;2024-03-06T13:20:09;10.90;1.00
2611;DHT22;5612;51.134;17.058;2024-03-06T13:22:39;10.50;1.00
2611;DHT22;5612;51.134;17.058;2024-03-06T13:25:09;10.30;1.00
2611;DHT22;5612;51.134;17.058;2024-03-06T13:27:39;10.30;1.00
2611;DHT22;5612;51.134;17.058;2024-03-06T13:30:09;9.90;1.00
2611;DHT22;5612;51.134;17.058;2024-03-06T13:32:39;9.70;1.00
2611;DHT22;5612;51.134;17.058;2024-03-06T13:35:10;9.60;1.00
2611;DHT22;5612;51.134;17.058;2024-03-06T13:37:41;9.60;1.00
2611;DHT22;5612;51.134;17.058;2024-03-06T13:40:11;9.60;1.00
2611;DHT22;5612;51.134;17.058;2024-03-06T13:42:43;9.50;1.00
2611;DHT22;5612;51.134;17.058;2024-03-06T13:45:12;9.60;1.00
2611;DHT22;5612;51.134;17.058;2024-03-06T13:47:43;9.90;1.00
2611;DHT22;5612;51.134;17.058;2024-03-06T13:50:14;9.70;1.00
2611;DHT22;5612;51.134;17.058;2024-03-06T13:52:43;9.60;1.00
2611;DHT22;5612;51.134;17.058;2024-03-06T13:55:16;9.50;1.00
2611;DHT22;5612;51.134;17.058;2024-03-06T13:57:47;9.30;1.00
2611;DHT22;5612;51.134;17.058;2024-03-06T14:00:17;9.20;1.00
2611;DHT22;5612;51.134;17.058;2024-03-06T14:02:46;9.40;1.00
2611;DHT22;5612;51.134;17.058;2024-03-06T14:05:16;9.50;1.00
2611;DHT22;5612;51.134;17.058;2024-03-06T14:07:47;9.40;1.00
2611;DHT22;5612;51.134;17.058;2024-03-06T14:10:16;9.30;1.00
2611;DHT22;5612;51.134;17.058;2024-03-06T14:12:48;9.10;1.00
2611;DHT22;5612;51.134;17.058;2024-03-06T14:15:19;8.90;2.30
2611;DHT22;5612;51.134;17.058;2024-03-06T14:17:50;8.90;17.50
2611;DHT22;5612;51.134;17.058;2024-03-06T14:20:19;9.00;14.30
2611;DHT22;5612;51.134;17.058;2024-03-06T14:22:48;9.10;16.50
2611;DHT22;5612;51.134;17.058;2024-03-06T14:25:17;8.90;26.40
2611;DHT22;5612;51.134;17.058;2024-03-06T14:27:51;8.80;25.60
2611;DHT22;5612;51.134;17.058;2024-03-06T14:30:20;8.80;25.50
2611;DHT22;5612;51.134;17.058;2024-03-06T14:32:49;8.90;19.10
2611;DHT22;5612;51.134;17.058;2024-03-06T14:35:18;8.90;2.40
2611;DHT22;5612;51.134;17.058;2024-03-06T14:37:48;8.80;36.20
2611;DHT22;5612;51.134;17.058;2024-03-06T14:40:17;8.80;41.00
2611;DHT22;5612;51.134;17.058;2024-03-06T14:42:45;9.00;26.10
2611;DHT22;5612;51.134;17.058;2024-03-06T14:45:15;9.00;20.10
2611;DHT22;5612;51.134;17.058;2024-03-06T14:47:44;8.70;55.00
2611;DHT22;5612;51.134;17.058;2024-03-06T14:50:13;8.50;99.90
2611;DHT22;5612;51.134;17.058;2024-03-06T14:52:44;8.10;99.90
2611;DHT22;5612;51.134;17.058;2024-03-06T14:55:16;7.90;99.90
2611;DHT22;5612;51.134;17.058;2024-03-06T14:57:45;7.70;99.90
2611;DHT22;5612;51.134;17.058;2024-03-06T15:00:16;7.70;99.90
2611;DHT22;5612;51.134;17.058;2024-03-06T15:02:48;7.80;1.00
2611;DHT22;5612;51.134;17.058;2024-03-06T15:05:17;8.00;99.90
2611;DHT22;5612;51.134;17.058;2024-03-06T15:07:47;8.10;99.90
2611;DHT22;5612;51.134;17.058;2024-03-06T15:10:16;7.90;1.00
2611;DHT22;5612;51.134;17.058;2024-03-06T15:12:45;7.90;1.00
2611;DHT22;5612;51.134;17.058;2024-03-06T15:15:16;8.10;1.00
2611;DHT22;5612;51.134;17.058;2024-03-06T15:17:45;7.90;99.90
2611;DHT22;5612;51.134;17.058;2024-03-06T15:20:15;7.80;1.00
2611;DHT22;5612;51.134;17.058;2024-03-06T15:22:44;7.80;1.00
2611;DHT22;5612;51.134;17.058;2024-03-06T15:25:13;7.70;1.00
2611;DHT22;5612;51.134;17.058;2024-03-06T15:27:43;7.80;1.00
2611;DHT22;5612;51.134;17.058;2024-03-06T15:30:27;7.70;1.00
2611;DHT22;5612;51.134;17.058;2024-03-06T15:33:00;7.40;1.00
2611;DHT22;5612;51.134;17.058;2024-03-06T15:35:30;7.50;39.60
2611;DHT22;5612;51.134;17.058;2024-03-06T15:38:00;7.50;39.50
2611;DHT22;5612;51.134;17.058;2024-03-06T15:40:29;7.50;99.90
2611;DHT22;5612;51.134;17.058;2024-03-06T15:42:58;7.50;99.90
2611;DHT22;5612;51.134;17.058;2024-03-06T15:45:29;7.50;99.90
2611;DHT22;5612;51.134;17.058;2024-03-06T15:47:58;7.40;1.00
2611;DHT22;5612;51.134;17.058;2024-03-06T15:50:29;7.30;1.00
2611;DHT22;5612;51.134;17.058;2024-03-06T15:53:00;7.40;1.00
2611;DHT22;5612;51.134;17.058;2024-03-06T15:55:30;7.10;1.00
2611;DHT22;5612;51.134;17.058;2024-03-06T15:58:00;7.00;99.90
2611;DHT22;5612;51.134;17.058;2024-03-06T16:00:31;6.90;99.90
2611;DHT22;5612;51.134;17.058;2024-03-06T16:03:00;6.90;1.00
2611;DHT22;5612;51.134;17.058;2024-03-06T16:05:29;7.00;1.00
2611;DHT22;5612;51.134;17.058;2024-03-06T16:08:00;7.00;1.00
2611;DHT22;5612;51.134;17.058;2024-03-06T16:10:32;7.10;1.00
2611;DHT22;5612;51.134;17.058;2024-03-06T16:13:01;7.20;99.90
2611;DHT22;5612;51.134;17.058;2024-03-06T16:15:32;7.10;99.90
2611;DHT22;5612;51.134;17.058;2024-03-06T16:18:01;7.30;1.00
2611;DHT22;5612;51.134;17.058;2024-03-06T16:20:30;7.10;99.90
2611;DHT22;5612;51.134;17.058;2024-03-06T16:22:59;7.00;13.70
2611;DHT22;5612;51.134;17.058;2024-03-06T16:25:29;7.10;1.00
2611;DHT22;5612;51.134;17.058;2024-03-06T16:27:59;7.30;99.90
2611;DHT22;5612;51.134;17.058;2024-03-06T16:30:28;7.20;99.90
2611;DHT22;5612;51.134;17.058;2024-03-06T16:32:59;7.00;1.00
2611;DHT22;5612;51.134;17.058;2024-03-06T16:35:29;6.90;99.90